Time;durP1;ratioP1;P1;durP2;ratioP2;P2;SDS_P1;SDS_P2;PMS_P1;PMS_P2;Temp;Humidity;BMP_temperature;BMP_pressure;BME280_temperature;BME280_humidity;BME280_pressure;Samples;Min_cycle;Max_cycle;Signal;HPM_P1;HPM_P2
2021/10/08 00:02:00;;;;;;;2.33;2.13;;;7.20;99.90;;;;;;478177;249;27532;-75
2021/10/08 00:04:01;;;;;;;4.10;2.50;;;7.20;99.90;;;;;;478194;248;27856;-75
2021/10/08 00:06:03;;;;;;;2.58;2.37;;;7.10;99.90;;;;;;478187;249;28801;-76
2021/10/08 00:08:04;;;;;;;2.30;2.20;;;7.20;99.90;;;;;;478280;247;28008;-75
2021/10/08 00:10:05;;;;;;;2.10;2.00;;;7.20;99.90;;;;;;478303;249;28804;-75
2021/10/08 00:12:06;;;;;;;2.30;2.20;;;7.20;99.90;;;;;;478183;249;28897;-75
2021/10/08 00:14:08;;;;;;;2.37;2.27;;;7.20;99.90;;;;;;478216;249;28008;-75
2021/10/08 00:16:09;;;;;;;2.37;2.23;;;7.10;99.90;;;;;;478173;249;28001;-75
2021/10/08 00:18:10;;;;;;;1.92;1.83;;;7.10;99.90;;;;;;478222;249;28941;-75
2021/10/08 00:20:11;;;;;;;2.27;2.17;;;7.10;99.90;;;;;;478237;249;27449;-76
2021/10/08 00:22:13;;;;;;;2.10;2.00;;;7.10;99.90;;;;;;478534;249;27453;-75
2021/10/08 00:24:14;;;;;;;2.20;2.10;;;7.10;99.90;;;;;;478544;249;28698;-76
2021/10/08 00:26:15;;;;;;;2.30;2.20;;;7.20;99.90;;;;;;478535;249;27421;-76
2021/10/08 00:28:16;;;;;;;2.45;2.35;;;7.10;99.90;;;;;;478569;249;27862;-76
2021/10/08 00:30:18;;;;;;;2.00;1.90;;;7.20;99.90;;;;;;478329;249;27869;-76
2021/10/08 00:32:19;;;;;;;2.03;1.92;;;7.30;99.90;;;;;;478214;249;28777;-75
2021/10/08 00:34:20;;;;;;;2.60;2.40;;;7.30;99.90;;;;;;478327;249;27405;-75
2021/10/08 00:36:21;;;;;;;3.20;2.73;;;7.30;99.90;;;;;;478302;249;27429;-76
2021/10/08 00:38:23;;;;;;;3.33;3.12;;;7.40;99.90;;;;;;478322;249;27938;-76
2021/10/08 00:40:24;;;;;;;2.57;2.37;;;7.50;99.90;;;;;;478268;249;27457;-75
2021/10/08 00:42:26;;;;;;;2.60;2.40;;;7.60;99.90;;;;;;478294;248;28763;-75
2021/10/08 00:44:26;;;;;;;2.80;2.60;;;7.60;99.90;;;;;;478181;249;28635;-75
2021/10/08 00:46:28;;;;;;;3.00;2.70;;;7.40;99.90;;;;;;478248;249;28460;-76
2021/10/08 00:48:29;;;;;;;3.20;2.93;;;7.40;99.90;;;;;;478235;249;28577;-75
2021/10/08 00:50:30;;;;;;;2.87;2.57;;;7.50;99.90;;;;;;478198;249;28327;-75
2021/10/08 00:52:31;;;;;;;3.12;2.83;;;7.60;99.90;;;;;;478261;249;29214;-75
2021/10/08 00:54:33;;;;;;;2.90;2.70;;;7.40;99.90;;;;;;478267;249;27382;-75
2021/10/08 00:56:34;;;;;;;3.25;3.05;;;7.20;99.90;;;;;;478260;249;27445;-75
2021/10/08 00:58:35;;;;;;;2.60;2.40;;;7.30;99.90;;;;;;478224;249;27446;-75
2021/10/08 01:00:37;;;;;;;2.83;2.63;;;7.30;99.90;;;;;;478215;249;27501;-76
2021/10/08 01:02:38;;;;;;;2.45;2.35;;;7.40;99.90;;;;;;478260;249;27571;-75
2021/10/08 01:04:39;;;;;;;3.50;3.20;;;7.50;99.90;;;;;;478268;249;27878;-75
2021/10/08 01:06:40;;;;;;;2.70;2.60;;;7.40;99.90;;;;;;478236;249;29384;-75
2021/10/08 01:08:42;;;;;;;3.10;2.90;;;7.00;99.90;;;;;;478225;249;28085;-76
2021/10/08 01:10:43;;;;;;;2.40;2.30;;;6.60;99.90;;;;;;478236;249;28814;-75
2021/10/08 01:12:44;;;;;;;2.45;2.35;;;6.40;99.90;;;;;;478232;249;28794;-76
2021/10/08 01:14:45;;;;;;;3.10;2.60;;;6.30;99.90;;;;;;478207;249;27481;-75
2021/10/08 01:16:47;;;;;;;2.53;2.30;;;6.40;99.90;;;;;;478246;249;27926;-75
2021/10/08 01:18:48;;;;;;;2.30;2.20;;;6.50;99.90;;;;;;478210;249;27421;-75
2021/10/08 01:20:49;;;;;;;2.70;2.50;;;6.40;99.90;;;;;;478227;249;28321;-75
2021/10/08 01:22:53;;;;;;;2.35;2.25;;;6.40;99.90;;;;;;478200;249;27880;-75
2021/10/08 01:24:52;;;;;;;2.70;2.47;;;6.30;99.90;;;;;;477982;249;27941;-74
2021/10/08 01:26:53;;;;;;;2.65;2.45;;;6.20;99.90;;;;;;478174;249;27876;-75
2021/10/08 01:28:54;;;;;;;2.90;2.70;;;6.20;99.90;;;;;;478200;249;27429;-74
2021/10/08 01:30:55;;;;;;;2.47;2.35;;;6.20;99.90;;;;;;478198;249;27394;-75
2021/10/08 01:32:57;;;;;;;2.90;2.70;;;6.10;99.90;;;;;;478201;249;27540;-75
2021/10/08 01:34:58;;;;;;;2.70;2.50;;;6.10;99.90;;;;;;478213;249;27488;-75
2021/10/08 01:36:59;;;;;;;2.78;2.58;;;6.10;99.90;;;;;;478240;249;27410;-75
2021/10/08 01:39:00;;;;;;;2.50;2.40;;;6.10;99.90;;;;;;478257;249;27925;-75
2021/10/08 01:41:02;;;;;;;2.80;2.60;;;6.10;99.90;;;;;;478168;249;28017;-75
2021/10/08 01:43:03;;;;;;;2.30;2.20;;;6.10;99.90;;;;;;478137;249;27442;-75
2021/10/08 01:45:04;;;;;;;2.70;2.50;;;6.10;99.90;;;;;;478152;249;27536;-75
2021/10/08 01:47:05;;;;;;;3.17;2.87;;;6.20;99.90;;;;;;478188;249;27598;-75
2021/10/08 01:49:07;;;;;;;2.97;2.58;;;6.20;99.90;;;;;;478211;249;27564;-77
2021/10/08 01:51:08;;;;;;;3.28;2.60;;;6.20;99.90;;;;;;478193;249;27497;-75
2021/10/08 01:53:10;;;;;;;2.50;2.35;;;6.20;99.90;;;;;;478200;249;28072;-75
2021/10/08 01:55:10;;;;;;;2.25;2.08;;;6.30;99.90;;;;;;478199;249;28025;-75
2021/10/08 01:57:12;;;;;;;2.40;2.30;;;6.30;99.90;;;;;;478256;249;27489;-74
2021/10/08 01:59:13;;;;;;;3.00;2.80;;;6.30;99.90;;;;;;478157;249;27425;-74
2021/10/08 02:01:14;;;;;;;3.60;3.30;;;6.40;99.90;;;;;;478190;249;27448;-74
2021/10/08 02:03:15;;;;;;;3.40;3.10;;;6.40;99.90;;;;;;478160;249;27473;-74
2021/10/08 02:05:17;;;;;;;3.92;3.10;;;6.40;99.90;;;;;;478220;249;27429;-75
2021/10/08 02:07:18;;;;;;;4.30;2.40;;;6.50;99.90;;;;;;478199;249;27878;-74
2021/10/08 02:09:19;;;;;;;2.67;2.50;;;6.60;99.90;;;;;;478201;249;28051;-74
2021/10/08 02:11:20;;;;;;;3.15;2.95;;;6.70;99.90;;;;;;478172;249;27397;-74
2021/10/08 02:13:22;;;;;;;3.25;2.97;;;6.90;99.90;;;;;;478169;249;27535;-73
2021/10/08 02:15:23;;;;;;;3.75;3.45;;;7.10;99.90;;;;;;478215;249;27437;-73
2021/10/08 02:17:24;;;;;;;4.75;4.35;;;7.20;99.90;;;;;;478195;249;27677;-74
2021/10/08 02:19:26;;;;;;;5.12;4.53;;;7.50;99.90;;;;;;478196;249;27543;-74
2021/10/08 02:21:27;;;;;;;7.30;5.40;;;7.70;99.90;;;;;;478198;249;28916;-74
2021/10/08 02:23:28;;;;;;;7.35;6.05;;;7.90;99.90;;;;;;478206;249;28474;-74
2021/10/08 02:25:29;;;;;;;6.95;5.80;;;8.00;99.90;;;;;;478186;249;28127;-74
2021/10/08 02:27:31;;;;;;;6.90;6.00;;;8.10;99.90;;;;;;478208;249;27614;-75
2021/10/08 02:29:32;;;;;;;10.70;5.93;;;8.10;99.90;;;;;;478203;249;28084;-74
2021/10/08 02:31:33;;;;;;;7.70;6.25;;;8.20;99.90;;;;;;478203;249;27545;-76
2021/10/08 02:33:34;;;;;;;7.87;6.20;;;8.20;99.90;;;;;;478267;249;27556;-75
2021/10/08 02:35:36;;;;;;;8.30;5.93;;;8.30;99.90;;;;;;477439;249;28227;-76
2021/10/08 02:37:37;;;;;;;8.07;6.13;;;8.20;99.90;;;;;;478211;249;27862;-76
2021/10/08 02:39:38;;;;;;;7.50;5.93;;;8.30;99.90;;;;;;478212;249;27462;-76
2021/10/08 02:41:39;;;;;;;8.03;5.93;;;8.20;99.90;;;;;;478197;249;27924;-76
2021/10/08 02:43:41;;;;;;;7.50;6.27;;;8.20;99.90;;;;;;478197;249;27948;-76
2021/10/08 02:45:42;;;;;;;9.50;6.07;;;8.30;99.90;;;;;;478184;249;28535;-77
2021/10/08 02:47:43;;;;;;;9.20;6.53;;;8.30;99.90;;;;;;478180;249;28304;-76
2021/10/08 02:49:44;;;;;;;9.10;5.90;;;8.30;99.90;;;;;;478171;249;28404;-76
2021/10/08 02:51:46;;;;;;;8.17;6.67;;;8.20;99.90;;;;;;478179;249;28512;-75
2021/10/08 02:53:47;;;;;;;9.53;6.10;;;8.30;99.90;;;;;;478235;249;28123;-76
2021/10/08 02:55:48;;;;;;;7.00;5.63;;;8.20;99.90;;;;;;478222;249;28496;-76
2021/10/08 02:57:49;;;;;;;9.90;5.90;;;8.20;99.90;;;;;;478219;249;27868;-76
2021/10/08 02:59:51;;;;;;;10.00;6.00;;;8.10;99.90;;;;;;478223;249;28121;-75
2021/10/08 03:01:52;;;;;;;8.07;5.50;;;8.10;99.90;;;;;;478257;249;27918;-76
2021/10/08 03:03:53;;;;;;;6.10;4.97;;;8.00;99.90;;;;;;478247;249;27864;-76
2021/10/08 03:05:54;;;;;;;5.20;4.70;;;7.90;99.90;;;;;;478245;249;27797;-76
2021/10/08 03:07:56;;;;;;;5.23;4.73;;;7.80;99.90;;;;;;478203;249;28457;-76
2021/10/08 03:09:57;;;;;;;4.00;3.60;;;7.70;99.90;;;;;;478210;249;27784;-76
2021/10/08 03:11:58;;;;;;;5.33;4.30;;;7.60;99.90;;;;;;478210;249;28134;-75
2021/10/08 03:13:59;;;;;;;10.20;4.50;;;7.50;99.90;;;;;;478226;249;28262;-76
2021/10/08 03:16:01;;;;;;;4.73;4.10;;;7.50;99.90;;;;;;478188;249;27810;-76
2021/10/08 03:18:02;;;;;;;4.10;3.70;;;7.40;99.90;;;;;;478202;249;27939;-76
2021/10/08 03:20:03;;;;;;;4.37;3.97;;;7.00;99.90;;;;;;478200;249;27996;-75
2021/10/08 03:22:04;;;;;;;3.77;3.40;;;6.80;99.90;;;;;;477739;249;28657;-73
2021/10/08 03:24:06;;;;;;;3.95;3.55;;;6.70;99.90;;;;;;478237;249;28693;-77
2021/10/08 03:26:07;;;;;;;3.70;3.40;;;6.70;99.90;;;;;;478167;249;28018;-73
2021/10/08 03:28:09;;;;;;;3.37;3.12;;;6.60;99.90;;;;;;478224;248;27429;-73
2021/10/08 03:30:09;;;;;;;3.47;3.17;;;6.70;99.90;;;;;;478134;249;27498;-74
2021/10/08 03:32:11;;;;;;;4.82;3.30;;;6.70;99.90;;;;;;478242;249;27544;-75
2021/10/08 03:34:12;;;;;;;4.82;3.45;;;6.60;99.90;;;;;;477383;249;27979;-73
2021/10/08 03:36:26;;;;;;;4.00;3.58;;;6.60;99.90;;;;;;477975;249;27537;-76
2021/10/08 03:38:19;;;;;;;3.70;3.40;;;6.60;99.90;;;;;;477173;249;27629;-75
2021/10/08 03:40:27;;;;;;;4.57;3.70;;;6.70;99.90;;;;;;478062;249;28039;-73
2021/10/08 03:42:23;;;;;;;4.35;3.00;;;6.80;99.90;;;;;;477685;249;27441;-73
2021/10/08 03:44:27;;;;;;;4.57;3.25;;;6.90;99.90;;;;;;478181;249;27550;-73
2021/10/08 03:46:28;;;;;;;4.18;3.30;;;7.00;99.90;;;;;;477968;249;27421;-73
2021/10/08 03:50:34;;;;;;;4.82;4.30;;;7.20;99.90;;;;;;478197;249;27506;-76
2021/10/08 03:52:35;;;;;;;6.57;4.70;;;7.30;99.90;;;;;;478280;249;28120;-76
2021/10/08 03:54:36;;;;;;;9.27;5.78;;;7.40;99.90;;;;;;478185;247;28036;-73
2021/10/08 03:56:38;;;;;;;8.93;6.57;;;7.50;99.90;;;;;;478207;249;27490;-72
2021/10/08 03:58:39;;;;;;;6.62;5.10;;;7.60;99.90;;;;;;478223;249;28842;-73
2021/10/08 04:00:40;;;;;;;8.73;6.15;;;7.40;99.90;;;;;;478216;249;27498;-73
2021/10/08 04:02:42;;;;;;;8.45;5.80;;;7.30;99.90;;;;;;478210;249;27578;-72
2021/10/08 04:04:43;;;;;;;7.72;5.62;;;7.30;99.90;;;;;;478216;249;27440;-76
2021/10/08 04:06:44;;;;;;;10.50;6.13;;;7.30;99.90;;;;;;478201;249;28001;-76
2021/10/08 04:08:45;;;;;;;11.43;7.53;;;7.50;99.90;;;;;;478199;249;29354;-75
2021/10/08 04:10:47;;;;;;;9.50;6.33;;;7.50;99.90;;;;;;478198;249;28772;-74
2021/10/08 04:12:48;;;;;;;9.70;6.50;;;7.60;99.90;;;;;;478221;249;28789;-75
2021/10/08 04:14:49;;;;;;;9.13;6.87;;;7.50;99.90;;;;;;478230;249;28873;-76
2021/10/08 04:16:50;;;;;;;10.00;6.13;;;7.60;99.90;;;;;;478232;249;27854;-76
2021/10/08 04:18:52;;;;;;;5.80;5.10;;;7.00;99.90;;;;;;478241;249;28028;-76
2021/10/08 04:20:53;;;;;;;7.50;5.00;;;6.80;99.90;;;;;;478275;249;27489;-76
2021/10/08 04:22:54;;;;;;;6.55;5.35;;;6.70;99.90;;;;;;478233;249;28789;-76
2021/10/08 04:24:55;;;;;;;4.77;4.27;;;6.60;99.90;;;;;;478226;249;27525;-75
2021/10/08 04:26:57;;;;;;;5.60;4.57;;;6.60;99.90;;;;;;478217;249;27883;-75
2021/10/08 04:28:59;;;;;;;5.60;4.97;;;6.60;99.90;;;;;;478270;249;27912;-75
2021/10/08 04:30:59;;;;;;;5.00;4.50;;;6.60;99.90;;;;;;477801;249;28080;-75
2021/10/08 04:33:00;;;;;;;4.80;4.40;;;6.70;99.90;;;;;;478114;249;28517;-75
2021/10/08 04:35:02;;;;;;;5.57;4.70;;;6.70;99.90;;;;;;478222;249;28846;-75
2021/10/08 04:37:03;;;;;;;5.97;4.90;;;6.90;99.90;;;;;;478208;249;28657;-75
2021/10/08 04:39:04;;;;;;;7.30;6.22;;;6.90;99.90;;;;;;478214;249;27434;-76
2021/10/08 04:41:05;;;;;;;8.95;7.65;;;7.10;99.90;;;;;;478195;249;27553;-73
2021/10/08 04:43:07;;;;;;;13.10;8.40;;;7.10;99.90;;;;;;478208;249;27422;-73
2021/10/08 04:45:08;;;;;;;10.67;7.27;;;7.30;99.90;;;;;;478211;249;28804;-73
2021/10/08 04:47:11;;;;;;;9.50;7.32;;;7.30;99.90;;;;;;478201;249;28748;-75
2021/10/08 04:49:10;;;;;;;10.10;7.20;;;7.20;99.90;;;;;;478111;249;27445;-74
2021/10/08 04:51:12;;;;;;;11.15;7.43;;;7.20;99.90;;;;;;478209;249;28666;-74
2021/10/08 04:53:13;;;;;;;10.50;7.32;;;7.20;99.90;;;;;;478204;249;27490;-73
2021/10/08 04:55:14;;;;;;;10.67;7.53;;;7.20;99.90;;;;;;478199;249;27457;-74
2021/10/08 04:57:15;;;;;;;11.68;8.18;;;7.30;99.90;;;;;;478220;249;28373;-76
2021/10/08 04:59:17;;;;;;;13.50;7.87;;;7.20;99.90;;;;;;478210;249;27533;-73
2021/10/08 05:01:18;;;;;;;8.47;6.47;;;7.20;99.90;;;;;;478176;247;28001;-76
2021/10/08 05:03:19;;;;;;;9.27;7.50;;;7.20;99.90;;;;;;478217;249;29203;-76
2021/10/08 05:05:20;;;;;;;11.27;7.78;;;7.20;99.90;;;;;;478198;249;28039;-76
2021/10/08 05:07:22;;;;;;;12.05;8.93;;;7.30;99.90;;;;;;478207;249;27488;-76
2021/10/08 05:09:23;;;;;;;14.87;9.97;;;7.40;99.90;;;;;;478215;249;27456;-73
2021/10/08 05:11:24;;;;;;;17.53;10.07;;;7.40;99.90;;;;;;478212;249;28265;-73
2021/10/08 05:13:25;;;;;;;15.07;9.53;;;7.40;99.90;;;;;;478133;249;27887;-73
2021/10/08 05:15:27;;;;;;;21.70;12.07;;;7.40;99.90;;;;;;478110;249;28811;-76
2021/10/08 05:17:28;;;;;;;17.30;10.80;;;7.40;99.90;;;;;;478113;249;28528;-74
2021/10/08 05:19:29;;;;;;;14.50;9.73;;;7.40;99.90;;;;;;478189;249;27995;-74
2021/10/08 05:21:31;;;;;;;14.30;9.47;;;7.30;99.90;;;;;;478178;249;28436;-74
2021/10/08 05:23:33;;;;;;;15.20;9.63;;;7.30;99.90;;;;;;478182;249;27669;-76
2021/10/08 05:25:33;;;;;;;13.20;9.60;;;7.30;99.90;;;;;;478102;249;28987;-73
2021/10/08 05:27:34;;;;;;;14.63;9.93;;;7.30;99.90;;;;;;478164;249;28333;-72
2021/10/08 05:29:35;;;;;;;14.10;9.70;;;7.30;99.90;;;;;;478199;249;27453;-76
2021/10/08 05:31:37;;;;;;;12.73;9.37;;;7.20;99.90;;;;;;478136;249;27574;-76
2021/10/08 05:33:38;;;;;;;12.20;9.17;;;7.20;99.90;;;;;;478204;249;27603;-74
2021/10/08 05:35:39;;;;;;;13.37;9.50;;;7.30;99.90;;;;;;478203;249;27665;-73
2021/10/08 05:37:40;;;;;;;14.23;9.67;;;7.30;99.90;;;;;;478195;249;30204;-74
2021/10/08 05:39:42;;;;;;;13.27;8.73;;;7.20;99.90;;;;;;478191;249;28279;-73
2021/10/08 05:41:43;;;;;;;14.00;9.87;;;7.20;99.90;;;;;;478208;249;29394;-73
2021/10/08 05:43:44;;;;;;;14.67;9.40;;;7.30;99.90;;;;;;478223;249;27890;-73
2021/10/08 05:45:46;;;;;;;12.88;8.60;;;7.30;99.90;;;;;;478228;249;28321;-73
2021/10/08 05:47:47;;;;;;;13.27;9.00;;;7.30;99.90;;;;;;478222;249;27452;-76
2021/10/08 05:49:48;;;;;;;14.30;9.17;;;7.30;99.90;;;;;;478234;249;27801;-76
2021/10/08 05:51:49;;;;;;;12.33;8.90;;;7.30;99.90;;;;;;478225;249;28902;-76
2021/10/08 05:53:51;;;;;;;11.00;7.50;;;7.00;99.90;;;;;;478214;249;27737;-76
2021/10/08 05:55:52;;;;;;;11.80;8.70;;;6.80;99.90;;;;;;478216;249;28807;-76
2021/10/08 05:57:53;;;;;;;11.93;8.63;;;7.00;99.90;;;;;;478220;249;27818;-73
2021/10/08 05:59:54;;;;;;;12.90;9.25;;;7.10;99.90;;;;;;478212;249;28376;-72
2021/10/08 06:01:56;;;;;;;11.32;8.50;;;7.10;99.90;;;;;;478203;249;27967;-73
2021/10/08 06:03:58;;;;;;;10.52;7.47;;;6.80;99.90;;;;;;478174;249;27520;-74
2021/10/08 06:05:58;;;;;;;10.57;6.82;;;6.70;99.90;;;;;;478140;249;27607;-73
2021/10/08 06:08:00;;;;;;;7.72;6.03;;;6.60;99.90;;;;;;478158;249;27528;-76
2021/10/08 06:10:01;;;;;;;6.28;5.62;;;6.70;99.90;;;;;;478162;249;27613;-73
2021/10/08 06:12:02;;;;;;;6.20;5.40;;;6.60;99.90;;;;;;478190;249;27937;-74
2021/10/08 06:14:03;;;;;;;6.80;5.30;;;6.60;99.90;;;;;;478200;249;27896;-73
2021/10/08 06:16:05;;;;;;;5.75;5.05;;;6.70;99.90;;;;;;478223;249;29297;-73
2021/10/08 06:18:06;;;;;;;6.12;5.15;;;6.70;99.90;;;;;;478192;249;27521;-76
2021/10/08 06:20:07;;;;;;;7.33;5.13;;;6.60;99.90;;;;;;478196;249;27501;-73
2021/10/08 06:22:08;;;;;;;6.40;5.00;;;6.60;99.90;;;;;;478165;249;28880;-73
2021/10/08 06:24:10;;;;;;;8.07;6.35;;;6.80;99.90;;;;;;478174;249;27617;-74
2021/10/08 06:26:11;;;;;;;8.90;6.30;;;7.10;99.90;;;;;;477891;249;27587;-75
2021/10/08 06:28:12;;;;;;;11.85;8.00;;;7.20;99.90;;;;;;478130;249;27997;-75
2021/10/08 06:30:13;;;;;;;8.80;7.20;;;7.30;99.90;;;;;;478120;249;27441;-75
2021/10/08 06:32:15;;;;;;;9.60;6.13;;;7.20;99.90;;;;;;478178;249;28780;-74
2021/10/08 06:34:16;;;;;;;9.53;6.27;;;6.90;99.90;;;;;;478177;249;28368;-73
2021/10/08 06:36:17;;;;;;;8.50;5.93;;;6.90;99.90;;;;;;478327;248;27497;-76
2021/10/08 06:38:18;;;;;;;8.38;6.32;;;6.80;99.90;;;;;;478356;249;28091;-74
2021/10/08 06:40:20;;;;;;;7.20;6.07;;;7.10;99.90;;;;;;478184;249;29050;-73
2021/10/08 06:42:24;;;;;;;5.95;5.30;;;7.20;99.90;;;;;;478193;247;29377;-76
2021/10/08 06:44:22;;;;;;;8.43;6.40;;;7.20;99.90;;;;;;477935;249;27537;-76
2021/10/08 06:46:23;;;;;;;8.45;6.65;;;7.40;99.90;;;;;;478173;249;28850;-74
2021/10/08 06:48:25;;;;;;;9.50;6.70;;;7.40;99.90;;;;;;478170;249;27446;-75
2021/10/08 06:50:26;;;;;;;11.20;7.53;;;7.40;99.90;;;;;;478141;249;27884;-76
2021/10/08 06:52:27;;;;;;;9.10;7.20;;;7.50;99.90;;;;;;478159;249;27864;-75
2021/10/08 06:54:28;;;;;;;9.20;7.60;;;7.70;99.90;;;;;;478143;249;28920;-75
2021/10/08 06:56:30;;;;;;;13.13;9.13;;;7.80;99.90;;;;;;478131;249;27886;-75
2021/10/08 06:58:31;;;;;;;11.90;9.27;;;7.80;99.90;;;;;;478144;249;28136;-76
2021/10/08 07:00:32;;;;;;;13.40;9.10;;;7.90;99.90;;;;;;478133;249;28388;-76
2021/10/08 07:02:34;;;;;;;13.37;9.20;;;8.00;99.90;;;;;;478330;248;28420;-76
2021/10/08 07:04:35;;;;;;;11.40;8.50;;;8.00;99.90;;;;;;478452;249;28477;-75
2021/10/08 07:06:36;;;;;;;10.43;7.30;;;8.00;99.90;;;;;;478496;248;27911;-76
2021/10/08 07:08:37;;;;;;;11.87;8.90;;;8.10;99.90;;;;;;478394;248;27559;-76
2021/10/08 07:10:39;;;;;;;13.00;8.20;;;8.20;99.90;;;;;;478407;249;28485;-76
2021/10/08 07:12:40;;;;;;;13.33;7.77;;;8.20;99.90;;;;;;478407;249;28002;-76
2021/10/08 07:14:42;;;;;;;13.43;8.20;;;8.30;99.90;;;;;;478288;249;28003;-76
2021/10/08 07:16:42;;;;;;;12.07;9.23;;;8.30;99.90;;;;;;478222;249;28129;-76
2021/10/08 07:18:49;;;;;;;13.43;8.60;;;8.40;99.90;;;;;;478259;249;27835;-76
2021/10/08 07:20:45;;;;;;;10.53;8.30;;;8.50;99.90;;;;;;477848;249;28223;-76
2021/10/08 07:22:46;;;;;;;11.30;9.17;;;8.50;99.90;;;;;;478222;249;28442;-76
2021/10/08 07:24:51;;;;;;;12.97;8.07;;;8.60;99.90;;;;;;478242;249;28430;-76
2021/10/08 07:26:48;;;;;;;12.00;7.80;;;8.60;99.90;;;;;;477807;249;28074;-75
2021/10/08 07:28:50;;;;;;;15.07;9.80;;;8.70;99.90;;;;;;478215;249;27950;-76
2021/10/08 07:30:51;;;;;;;12.53;8.63;;;8.70;99.90;;;;;;478279;249;27830;-76
2021/10/08 07:32:52;;;;;;;11.73;8.60;;;8.80;99.90;;;;;;478444;249;27973;-76
2021/10/08 07:34:53;;;;;;;9.00;7.93;;;8.90;99.90;;;;;;478480;249;27786;-76
2021/10/08 07:36:55;;;;;;;10.07;8.20;;;8.90;99.90;;;;;;478276;249;28038;-76
2021/10/08 07:38:56;;;;;;;12.27;8.57;;;8.90;99.90;;;;;;478326;249;27800;-76
2021/10/08 07:40:57;;;;;;;11.40;7.87;;;8.90;99.90;;;;;;478250;248;28009;-76
2021/10/08 07:42:58;;;;;;;11.57;7.80;;;9.00;99.90;;;;;;478321;249;27561;-76
2021/10/08 07:45:00;;;;;;;8.87;7.03;;;9.00;99.90;;;;;;478287;249;27962;-76
2021/10/08 07:47:01;;;;;;;12.83;8.50;;;9.10;99.90;;;;;;478286;249;27676;-76
2021/10/08 07:49:02;;;;;;;9.80;8.07;;;9.20;99.90;;;;;;478244;249;28108;-76
2021/10/08 07:51:03;;;;;;;9.20;7.83;;;9.20;99.90;;;;;;478294;249;28657;-76
2021/10/08 07:53:05;;;;;;;10.60;7.83;;;9.30;99.90;;;;;;478272;249;28305;-76
2021/10/08 07:55:06;;;;;;;11.83;7.90;;;9.30;99.90;;;;;;478282;249;27964;-76
2021/10/08 07:57:07;;;;;;;10.13;8.30;;;9.40;99.90;;;;;;478141;249;28045;-76
2021/10/08 07:59:08;;;;;;;9.40;7.40;;;9.40;99.90;;;;;;478285;249;27875;-76
2021/10/08 08:01:10;;;;;;;7.63;6.60;;;9.40;99.90;;;;;;478252;249;27928;-76
2021/10/08 08:03:11;;;;;;;9.83;7.57;;;9.50;99.90;;;;;;478236;249;27794;-76
2021/10/08 08:05:12;;;;;;;7.90;7.10;;;9.60;99.90;;;;;;478243;249;27791;-76
2021/10/08 08:07:13;;;;;;;8.33;6.90;;;9.60;99.90;;;;;;478267;249;28020;-76
2021/10/08 08:09:15;;;;;;;7.50;6.70;;;9.70;99.90;;;;;;478274;249;27887;-76
2021/10/08 08:11:16;;;;;;;8.47;7.57;;;9.80;99.90;;;;;;478303;249;27649;-75
2021/10/08 08:13:17;;;;;;;10.13;7.00;;;9.80;99.90;;;;;;478287;249;27976;-76
2021/10/08 08:15:19;;;;;;;8.10;6.30;;;9.80;99.90;;;;;;478276;249;27998;-76
2021/10/08 08:17:20;;;;;;;7.27;5.70;;;9.90;99.90;;;;;;478278;249;27988;-76
2021/10/08 08:19:21;;;;;;;9.63;6.53;;;10.00;99.90;;;;;;478344;249;27858;-76
2021/10/08 08:21:22;;;;;;;7.10;6.27;;;10.00;99.90;;;;;;478270;249;28404;-76
2021/10/08 08:23:23;;;;;;;7.53;6.67;;;10.10;99.90;;;;;;478300;249;28957;-75
2021/10/08 08:25:25;;;;;;;7.10;6.40;;;10.20;99.90;;;;;;478292;249;28176;-76
2021/10/08 08:27:26;;;;;;;6.90;6.20;;;10.20;99.90;;;;;;478278;249;27960;-76
2021/10/08 08:29:28;;;;;;;7.63;6.33;;;10.30;99.90;;;;;;478325;249;27969;-76
2021/10/08 08:31:29;;;;;;;14.33;6.83;;;10.30;99.90;;;;;;478270;249;27630;-76
2021/10/08 08:33:30;;;;;;;10.07;6.37;;;10.50;99.90;;;;;;478233;249;28003;-76
2021/10/08 08:35:31;;;;;;;7.20;6.10;;;10.40;99.90;;;;;;478232;249;27997;-76
2021/10/08 08:37:32;;;;;;;8.63;6.07;;;10.50;99.90;;;;;;478248;249;28035;-76
2021/10/08 08:39:37;;;;;;;8.40;5.47;;;10.50;99.90;;;;;;478262;249;28050;-76
2021/10/08 08:41:35;;;;;;;7.13;5.40;;;10.60;99.90;;;;;;477995;249;27864;-76
2021/10/08 08:43:36;;;;;;;9.13;5.50;;;10.60;99.90;;;;;;478213;249;28469;-75
2021/10/08 08:45:37;;;;;;;6.10;5.53;;;10.70;99.90;;;;;;478250;249;28352;-76
2021/10/08 08:47:39;;;;;;;6.73;5.90;;;10.80;99.90;;;;;;478286;249;28350;-76
2021/10/08 08:49:40;;;;;;;5.60;5.00;;;10.90;99.90;;;;;;478280;249;28459;-76
2021/10/08 08:51:41;;;;;;;7.77;5.03;;;10.90;99.90;;;;;;478308;249;28029;-76
2021/10/08 08:53:42;;;;;;;6.33;5.10;;;11.00;99.90;;;;;;478321;249;28017;-76
2021/10/08 08:55:44;;;;;;;7.40;5.40;;;11.10;99.90;;;;;;478309;249;27756;-76
2021/10/08 08:57:45;;;;;;;6.23;4.63;;;11.20;99.90;;;;;;478265;249;28061;-76
2021/10/08 08:59:46;;;;;;;7.97;5.10;;;11.20;99.90;;;;;;478242;249;28026;-76
2021/10/08 09:01:47;;;;;;;5.43;4.90;;;11.30;99.90;;;;;;478291;249;27913;-76
2021/10/08 09:03:49;;;;;;;12.50;5.10;;;11.30;99.90;;;;;;478342;249;28007;-76
2021/10/08 09:05:50;;;;;;;7.00;5.50;;;11.40;99.90;;;;;;478282;249;27925;-76
2021/10/08 09:07:51;;;;;;;5.83;4.70;;;11.50;99.90;;;;;;478329;249;28491;-76
2021/10/08 09:09:52;;;;;;;5.97;5.33;;;11.50;99.90;;;;;;478343;249;29098;-76
2021/10/08 09:11:55;;;;;;;6.10;5.23;;;11.60;99.90;;;;;;478354;249;28399;-76
2021/10/08 09:13:55;;;;;;;5.50;4.77;;;11.60;99.90;;;;;;478280;249;27542;-77
2021/10/08 09:15:56;;;;;;;8.47;4.57;;;11.70;99.90;;;;;;478347;249;27825;-76
2021/10/08 09:17:57;;;;;;;8.40;5.40;;;11.70;99.90;;;;;;478357;249;27980;-76
2021/10/08 09:20:00;;;;;;;8.80;5.63;;;11.70;99.90;;;;;;478347;249;27915;-76
2021/10/08 09:22:00;;;;;;;6.43;5.57;;;11.70;99.90;;;;;;478347;249;28011;-76
2021/10/08 09:24:01;;;;;;;5.97;5.37;;;11.70;99.90;;;;;;478348;249;28073;-76
2021/10/08 09:26:02;;;;;;;4.93;4.53;;;11.90;99.90;;;;;;478351;249;28000;-76
2021/10/08 09:28:04;;;;;;;4.87;4.17;;;11.90;99.90;;;;;;478344;249;28053;-76
2021/10/08 09:30:05;;;;;;;5.10;4.60;;;11.90;99.90;;;;;;478384;248;27922;-76
2021/10/08 09:32:06;;;;;;;6.40;4.83;;;12.00;99.90;;;;;;478367;249;28011;-77
2021/10/08 09:34:07;;;;;;;6.63;5.33;;;12.10;99.90;;;;;;478301;249;28721;-76
2021/10/08 09:36:09;;;;;;;6.87;5.07;;;12.30;99.90;;;;;;478318;249;28352;-76
2021/10/08 09:38:13;;;;;;;7.10;4.93;;;12.20;99.90;;;;;;478374;249;28658;-76
2021/10/08 09:40:14;;;;;;;6.33;4.73;;;12.30;99.90;;;;;;478290;249;28041;-76
2021/10/08 09:42:15;;;;;;;5.67;4.70;;;12.40;99.90;;;;;;478360;249;28058;-76
2021/10/08 09:44:16;;;;;;;8.20;4.50;;;12.50;99.90;;;;;;478331;249;28945;-76
2021/10/08 09:46:18;;;;;;;6.60;4.67;;;12.50;99.90;;;;;;478342;249;29361;-76
2021/10/08 09:48:19;;;;;;;5.40;4.30;;;12.60;99.90;;;;;;478276;249;28596;-76
2021/10/08 09:50:20;;;;;;;4.73;4.23;;;12.60;99.90;;;;;;478307;249;28271;-76
2021/10/08 09:52:22;;;;;;;5.03;4.63;;;12.70;99.90;;;;;;478304;249;28319;-77
2021/10/08 09:54:23;;;;;;;5.20;4.30;;;12.70;99.90;;;;;;478335;249;28103;-76
2021/10/08 09:56:24;;;;;;;4.00;3.67;;;12.80;99.90;;;;;;478307;249;28586;-77
2021/10/08 09:58:25;;;;;;;4.20;3.67;;;12.90;99.90;;;;;;478378;249;28372;-76
2021/10/08 10:00:26;;;;;;;5.07;4.13;;;12.90;99.90;;;;;;478282;249;28441;-76
2021/10/08 10:02:28;;;;;;;6.43;4.10;;;13.00;99.90;;;;;;478309;249;28486;-76
2021/10/08 10:04:29;;;;;;;6.13;3.70;;;13.10;99.90;;;;;;478344;249;28386;-76
2021/10/08 10:06:30;;;;;;;4.90;3.80;;;13.00;99.90;;;;;;478319;249;29012;-76
2021/10/08 10:08:31;;;;;;;3.70;3.43;;;13.10;99.90;;;;;;478344;249;29234;-76
2021/10/08 10:10:33;;;;;;;4.50;3.77;;;13.10;99.90;;;;;;478300;249;28875;-76
2021/10/08 10:12:34;;;;;;;5.23;4.10;;;13.20;99.90;;;;;;478332;249;28835;-76
2021/10/08 10:14:35;;;;;;;4.80;3.90;;;13.30;99.90;;;;;;478355;249;28514;-75
2021/10/08 10:16:36;;;;;;;5.07;4.03;;;13.40;99.90;;;;;;478366;249;28152;-75
2021/10/08 10:18:38;;;;;;;6.40;4.20;;;13.30;99.90;;;;;;478328;249;28084;-76
2021/10/08 10:20:39;;;;;;;5.97;4.13;;;13.40;99.90;;;;;;478390;249;28033;-75
2021/10/08 10:22:40;;;;;;;5.00;4.50;;;13.50;99.90;;;;;;478319;249;28340;-76
2021/10/08 10:24:41;;;;;;;7.20;4.37;;;13.50;99.90;;;;;;478219;249;28116;-75
2021/10/08 10:26:43;;;;;;;3.90;3.60;;;13.50;99.90;;;;;;477998;249;28268;-75
2021/10/08 10:28:44;;;;;;;6.17;3.80;;;13.50;99.90;;;;;;477982;248;28847;-76
2021/10/08 10:30:45;;;;;;;3.93;3.63;;;13.60;99.90;;;;;;478288;249;29286;-76
2021/10/08 10:32:46;;;;;;;6.87;3.93;;;13.60;99.90;;;;;;478352;249;28759;-77
2021/10/08 10:34:48;;;;;;;4.80;3.70;;;13.60;99.90;;;;;;478327;249;28707;-76
2021/10/08 10:36:49;;;;;;;6.80;3.90;;;13.60;99.90;;;;;;478340;249;28590;-76
2021/10/08 10:38:50;;;;;;;7.83;3.90;;;13.70;99.90;;;;;;478339;249;28148;-76